Terminal Aerodrome Forecast
Issued by NWS

Home | Current Version | Previous Version | Text Only | Print | Product List | Glossary Off
Versions: 1 2 3 4 5 6 7 8 9 10 11 12 13 14 15 16

000
FTUS42 KMHX 291720
TAFPGV
TAF
KPGV 291720Z 2918/3018 04008KT P6SM VCTS SCT025CB BKN035
     FM300700 VRB04KT 5SM BR BKN008
     FM301400 02009KT P6SM BKN025
     FM301600 03010KT P6SM BKN035
      AMD LTD TO CLD VIS AND WIND=

USA.gov is the U.S. government's official web portal to all federal, state and local government web resources and services.